createdAt,value
2023-04-10T00:00:48.222Z,99763.75
2023-04-10T00:03:34.007Z,99766.16
2023-04-10T00:06:19.491Z,99761.41
2023-04-10T00:09:04.871Z,99759.84
2023-04-10T00:11:50.651Z,99759.84
2023-04-10T00:14:36.274Z,99757.88
2023-04-10T00:17:21.513Z,99756.31
2023-04-10T00:20:07.440Z,99759.47
2023-04-10T00:22:52.857Z,99747.59
2023-04-10T00:25:38.407Z,99739.66
2023-04-10T00:28:23.702Z,99744.81
2023-04-10T00:31:09.218Z,99745.25
2023-04-10T00:33:54.647Z,99740.88
2023-04-10T00:36:40.403Z,99739.31
2023-04-10T00:39:26.017Z,99740.50
2023-04-10T00:42:11.361Z,99741.72
2023-04-10T00:44:56.639Z,99734.56
2023-04-10T00:47:42.086Z,99740.13
2023-04-10T00:50:27.471Z,99739.34
2023-04-10T00:53:13.163Z,99736.97
2023-04-10T00:55:59.403Z,99733.84
2023-04-10T00:58:45.375Z,99731.84
2023-04-10T01:01:31.410Z,99735.41
2023-04-10T01:04:17.188Z,99736.22
2023-04-10T01:07:19.007Z,99735.84
2023-04-10T01:10:13.293Z,99741.41
2023-04-10T01:13:23.734Z,99741.03
2023-04-10T01:16:26.542Z,99727.91
2023-04-10T01:19:42.917Z,99734.69
2023-04-10T01:22:46.660Z,99736.66
2023-04-10T01:25:32.156Z,99737.50
2023-04-10T01:28:43.521Z,99738.69
2023-04-10T01:31:39.398Z,99742.66
2023-04-10T01:34:32.451Z,99741.09
2023-04-10T01:37:26.191Z,99745.06
2023-04-10T01:40:15.528Z,99756.94
2023-04-10T01:43:06.167Z,99753.00
2023-04-10T01:46:03.987Z,99743.50
2023-04-10T01:48:52.257Z,99747.84
2023-04-10T01:51:38.087Z,99739.94
2023-04-10T01:54:28.781Z,99739.13
2023-04-10T01:57:15.978Z,99737.16
2023-04-10T02:00:11.005Z,99738.34
2023-04-10T02:03:02.412Z,99737.56
2023-04-10T02:06:11.414Z,99734.78
2023-04-10T02:09:15.907Z,99735.97
2023-04-10T02:12:07.258Z,99720.50
2023-04-10T02:14:56.255Z,99722.06
2023-04-10T02:17:42.719Z,99726.06
2023-04-10T02:20:28.864Z,99718.13
2023-04-10T02:23:17.438Z,99726.06
2023-04-10T02:26:08.006Z,99716.56
2023-04-10T02:28:53.538Z,99717.34
2023-04-10T02:31:39.242Z,99713.00
2023-04-10T02:34:24.781Z,99715.78
2023-04-10T02:37:10.212Z,99713.00
2023-04-10T02:39:55.709Z,99711.00
2023-04-10T02:42:43.460Z,99716.97
2023-04-10T02:45:29.785Z,99717.38
2023-04-10T02:48:15.127Z,99712.63
2023-04-10T02:51:00.424Z,99710.25
2023-04-10T02:53:48.704Z,99707.47
2023-04-10T02:56:44.354Z,99705.47
2023-04-10T02:59:29.544Z,99717.00
2023-04-10T03:02:15.927Z,99707.88
2023-04-10T03:05:02.559Z,99717.81
2023-04-10T03:07:47.966Z,99717.41
2023-04-10T03:10:33.819Z,99722.19
2023-04-10T03:13:18.964Z,99722.53
2023-04-10T03:16:04.356Z,99725.31
2023-04-10T03:18:50.199Z,99720.97
2023-04-10T03:21:35.449Z,99721.38
2023-04-10T03:24:22.751Z,99716.63
2023-04-10T03:27:08.051Z,99718.59
2023-04-10T03:29:53.260Z,99722.59
2023-04-10T03:32:42.295Z,99719.81
2023-04-10T03:35:28.138Z,99728.16
2023-04-10T03:38:13.622Z,99718.59
2023-04-10T03:40:59.639Z,99719.81
2023-04-10T03:43:47.925Z,99723.78
2023-04-10T03:46:33.867Z,99713.09
2023-04-10T03:49:19.536Z,99723.78
2023-04-10T03:52:05.457Z,99719.44
2023-04-10T03:54:52.166Z,99723.78
2023-04-10T03:57:43.777Z,99725.00
2023-04-10T04:00:29.156Z,99728.53
2023-04-10T04:03:24.172Z,99726.97
2023-04-10T04:06:09.685Z,99726.19
2023-04-10T04:08:58.928Z,99728.16
2023-04-10T04:12:03.275Z,99732.09
2023-04-10T04:15:09.879Z,99736.47
2023-04-10T04:18:24.475Z,99732.09
2023-04-10T04:21:15.870Z,99738.03
2023-04-10T04:24:24.979Z,99737.25
2023-04-10T04:27:33.353Z,99739.25
2023-04-10T04:30:42.353Z,99743.19
2023-04-10T04:33:30.636Z,99745.19
2023-04-10T04:36:42.597Z,99747.91
2023-04-10T04:39:50.795Z,99742.75
2023-04-10T04:42:42.338Z,99744.28
2023-04-10T04:45:27.398Z,99746.66
2023-04-10T04:48:28.846Z,99742.28
2023-04-10T04:51:31.746Z,99741.84
2023-04-10T04:54:35.930Z,99739.81
2023-04-10T04:57:39.949Z,99741.78
2023-04-10T05:00:38.221Z,99745.72
2023-04-10T05:03:46.827Z,99744.88
2023-04-10T05:06:47.667Z,99747.66
2023-04-10T05:09:42.009Z,99749.59
2023-04-10T05:12:43.271Z,99743.63
2023-04-10T05:15:45.347Z,99739.25
2023-04-10T05:18:57.940Z,99747.19
2023-04-10T05:22:13.086Z,99740.00
2023-04-10T05:25:30.431Z,99745.56
2023-04-10T05:28:41.947Z,99750.69
2023-04-10T05:31:46.842Z,99748.28
2023-04-10T05:34:52.362Z,99750.28
2023-04-10T05:38:00.961Z,99745.88
2023-04-10T05:40:52.191Z,99746.31
2023-04-10T05:43:59.401Z,99751.44
2023-04-10T05:47:04.515Z,99751.44
2023-04-10T05:50:08.256Z,99749.84
2023-04-10T05:53:19.899Z,99747.84
2023-04-10T05:56:28.241Z,99742.28
2023-04-10T05:59:38.973Z,99749.00
2023-04-10T06:02:59.662Z,99748.59
2023-04-10T06:05:46.732Z,99745.78
2023-04-10T06:08:31.945Z,99752.13
2023-04-10T06:11:18.085Z,99747.72
2023-04-10T06:14:09.330Z,99753.25
2023-04-10T06:17:01.826Z,99744.47
2023-04-10T06:19:48.028Z,99744.09
2023-04-10T06:22:33.674Z,99742.88
2023-04-10T06:25:19.122Z,99744.47
2023-04-10T06:28:04.753Z,99736.56
2023-04-10T06:30:50.899Z,99737.34
2023-04-10T06:33:37.314Z,99725.38
2023-04-10T06:36:27.607Z,99724.44
2023-04-10T06:39:19.735Z,99726.78
2023-04-10T06:42:08.798Z,99730.31
2023-04-10T06:45:18.874Z,99729.06
2023-04-10T06:48:06.739Z,99734.56
2023-04-10T06:50:52.776Z,99722.25
2023-04-10T06:53:38.530Z,99723.00
2023-04-10T06:56:24.543Z,99719.34
2023-04-10T06:59:12.729Z,99720.88
2023-04-10T07:01:59.588Z,99718.06
2023-04-10T07:04:44.840Z,99719.63
2023-04-10T07:07:30.385Z,99722.38
2023-04-10T07:10:15.739Z,99712.81
2023-04-10T07:13:02.340Z,99716.72
2023-04-10T07:15:47.702Z,99710.72
2023-04-10T07:18:32.988Z,99701.56
2023-04-10T07:21:18.314Z,99702.28
2023-04-10T07:24:04.667Z,99700.66
2023-04-10T07:26:49.877Z,99696.25
2023-04-10T07:29:35.835Z,99690.63
2023-04-10T07:32:22.598Z,99687.84
2023-04-10T07:35:12.660Z,99685.09
2023-04-10T07:37:59.001Z,99687.03
2023-04-10T07:40:44.873Z,99686.25
2023-04-10T07:43:30.649Z,99681.09
2023-04-10T07:46:17.666Z,99685.47
2023-04-10T07:49:05.631Z,99677.13
2023-04-10T07:51:52.624Z,99681.47
2023-04-10T07:54:38.388Z,99683.84
2023-04-10T07:57:24.698Z,99679.44
2023-04-10T08:00:10.438Z,99684.63
2023-04-10T08:03:33.672Z,99682.63
2023-04-10T08:06:19.423Z,99685.38
2023-04-10T08:09:05.090Z,99683.81
2023-04-10T08:12:05.440Z,99678.22
2023-04-10T08:14:54.297Z,99675.09
2023-04-10T08:17:44.700Z,99673.50
2023-04-10T08:20:38.254Z,99678.22
2023-04-10T08:23:26.991Z,99675.00
2023-04-10T08:26:14.120Z,99673.03
2023-04-10T08:29:02.929Z,99669.41
2023-04-10T08:31:51.802Z,99662.59
2023-04-10T08:34:41.810Z,99664.19
2023-04-10T08:37:29.905Z,99667.34
2023-04-10T08:40:17.605Z,99663.34
2023-04-10T08:43:04.201Z,99668.50
2023-04-10T08:45:52.366Z,99663.69
2023-04-10T08:49:04.567Z,99655.72
2023-04-10T08:51:59.318Z,99652.56
2023-04-10T08:54:53.294Z,99651.38
2023-04-10T08:57:47.886Z,99649.78
2023-04-10T09:00:38.836Z,99645.81
2023-04-10T09:03:25.685Z,99651.78
2023-04-10T09:06:11.487Z,99645.44
2023-04-10T09:09:02.953Z,99648.22
2023-04-10T09:11:52.308Z,99638.28
2023-04-10T09:14:38.054Z,99637.91
2023-04-10T09:17:24.815Z,99633.16
2023-04-10T09:20:22.026Z,99634.34
2023-04-10T09:23:22.179Z,99626.34
2023-04-10T09:26:30.714Z,99631.19
2023-04-10T09:29:19.772Z,99637.97
2023-04-10T09:32:05.891Z,99630.81
2023-04-10T09:34:57.611Z,99625.69
2023-04-10T09:37:46.920Z,99612.56
2023-04-10T09:40:32.791Z,99613.72
2023-04-10T09:43:25.769Z,99614.13
2023-04-10T09:46:11.745Z,99608.13
2023-04-10T09:48:57.232Z,99608.13
2023-04-10T09:51:43.529Z,99593.47
2023-04-10T09:54:38.197Z,99590.66
2023-04-10T09:57:25.815Z,99590.66
2023-04-10T10:00:14.333Z,99577.50
2023-04-10T10:03:06.986Z,99578.28
2023-04-10T10:05:52.853Z,99575.13
2023-04-10T10:08:38.996Z,99578.28
2023-04-10T10:11:26.333Z,99572.31
2023-04-10T10:14:18.061Z,99572.31
2023-04-10T10:17:12.283Z,99560.03
2023-04-10T10:20:05.867Z,99562.38
2023-04-10T10:22:52.854Z,99548.88
2023-04-10T10:25:39.361Z,99548.06
2023-04-10T10:28:28.244Z,99541.81
2023-04-10T10:31:14.974Z,99541.81
2023-04-10T10:34:05.481Z,99533.38
2023-04-10T10:36:51.135Z,99528.59
2023-04-10T10:40:04.332Z,99526.25
2023-04-10T10:43:26.960Z,99530.59
2023-04-10T10:46:29.920Z,99525.03
2023-04-10T10:49:15.918Z,99513.88
2023-04-10T10:52:01.177Z,99508.75
2023-04-10T10:54:57.044Z,99506.31
2023-04-10T10:57:53.035Z,99494.34
2023-04-10T11:00:51.092Z,99487.19
2023-04-10T11:03:37.900Z,99486.81
2023-04-10T11:06:53.175Z,99485.63
2023-04-10T11:09:53.770Z,99470.47
2023-04-10T11:13:18.317Z,99473.63
2023-04-10T11:16:06.812Z,99468.41
2023-04-10T11:19:02.664Z,99458.06
2023-04-10T11:22:01.702Z,99458.06
2023-04-10T11:24:58.052Z,99453.66
2023-04-10T11:27:51.899Z,99448.09
2023-04-10T11:30:37.539Z,99444.06
2023-04-10T11:33:23.251Z,99432.16
2023-04-10T11:36:08.530Z,99427.78
2023-04-10T11:39:14.221Z,99434.16
2023-04-10T11:42:03.022Z,99425.00
2023-04-10T11:44:49.562Z,99422.66
2023-04-10T11:48:00.745Z,99420.72
2023-04-10T11:50:46.328Z,99418.75
2023-04-10T11:53:31.801Z,99418.75
2023-04-10T11:56:19.282Z,99413.97
2023-04-10T11:59:07.941Z,99415.50
2023-04-10T12:02:03.057Z,99405.16
2023-04-10T12:04:58.264Z,99408.31
2023-04-10T12:07:43.754Z,99394.72
2023-04-10T12:10:29.915Z,99397.47
2023-04-10T12:13:31.029Z,99393.81
2023-04-10T12:16:16.824Z,99392.50
2023-04-10T12:19:02.595Z,99388.06
2023-04-10T12:21:48.704Z,99388.88
2023-04-10T12:24:40.972Z,99387.22
2023-04-10T12:27:27.729Z,99380.88
2023-04-10T12:30:55.424Z,99384.81
2023-04-10T12:33:46.438Z,99392.28
2023-04-10T12:36:34.611Z,99386.66
2023-04-10T12:39:34.566Z,99381.84
2023-04-10T12:42:22.935Z,99375.84
2023-04-10T12:45:10.468Z,99376.63
2023-04-10T12:47:56.450Z,99376.63
2023-04-10T12:50:48.205Z,99377.41
2023-04-10T12:54:03.987Z,99371.41
2023-04-10T12:56:51.501Z,99366.56
2023-04-10T12:59:40.398Z,99375.69
2023-04-10T13:02:30.467Z,99367.34
2023-04-10T13:05:42.323Z,99359.75
2023-04-10T13:08:39.421Z,99356.09
2023-04-10T13:11:24.450Z,99350.13
2023-04-10T13:14:11.206Z,99343.75
2023-04-10T13:16:56.369Z,99348.13
2023-04-10T13:19:41.458Z,99333.41
2023-04-10T13:22:26.927Z,99350.13
2023-04-10T13:25:12.359Z,99324.63
2023-04-10T13:27:57.989Z,99327.88
2023-04-10T13:30:43.291Z,99321.47
2023-04-10T13:33:31.738Z,99323.88
2023-04-10T13:36:20.598Z,99314.31
2023-04-10T13:39:07.214Z,99307.53
2023-04-10T13:41:52.802Z,99298.81
2023-04-10T13:44:38.169Z,99307.16
2023-04-10T13:47:23.389Z,99300.31
2023-04-10T13:50:09.085Z,99292.31
2023-04-10T13:52:57.027Z,99291.53
2023-04-10T13:55:44.577Z,99287.16
2023-04-10T13:58:35.095Z,99274.47
2023-04-10T14:01:23.187Z,99267.31
2023-04-10T14:04:09.434Z,99269.31
2023-04-10T14:06:57.863Z,99262.59
2023-04-10T14:09:42.990Z,99255.44
2023-04-10T14:12:28.635Z,99262.59
2023-04-10T14:15:14.148Z,99264.53
2023-04-10T14:18:01.208Z,99254.25
2023-04-10T14:20:47.887Z,99245.09
2023-04-10T14:23:33.256Z,99251.09
2023-04-10T14:26:18.631Z,99248.31
2023-04-10T14:29:08.685Z,99239.94
2023-04-10T14:31:58.145Z,99240.72
2023-04-10T14:34:51.258Z,99237.53
2023-04-10T14:37:37.227Z,99237.09
2023-04-10T14:40:22.930Z,99240.38
2023-04-10T14:43:08.762Z,99230.03
2023-04-10T14:45:54.034Z,99221.69
2023-04-10T14:48:39.569Z,99226.38
2023-04-10T14:51:25.178Z,99218.38
2023-04-10T14:54:11.150Z,99218.00
2023-04-10T14:56:58.480Z,99204.50
2023-04-10T14:59:50.373Z,99212.44
2023-04-10T15:02:42.306Z,99204.50
2023-04-10T15:08:30.361Z,99187.03
2023-04-10T15:11:16.503Z,99182.22
2023-04-10T15:14:02.773Z,99177.09
2023-04-10T15:16:48.609Z,99179.91
2023-04-10T15:19:34.135Z,99176.31
2023-04-10T15:22:19.597Z,99166.38
2023-04-10T15:25:05.753Z,99161.25
2023-04-10T15:27:51.324Z,99177.53
2023-04-10T15:30:37.266Z,99165.63
2023-04-10T15:33:22.831Z,99162.13
2023-04-10T15:36:08.574Z,99160.03
2023-04-10T15:38:54.306Z,99158.38
2023-04-10T15:41:42.847Z,99145.66
2023-04-10T15:44:29.398Z,99140.00
2023-04-10T15:47:14.709Z,99149.13
2023-04-10T15:50:01.114Z,99148.78
2023-04-10T15:52:47.115Z,99148.00
2023-04-10T15:55:32.743Z,99131.31
2023-04-10T15:58:17.951Z,99127.38
2023-04-10T16:01:03.558Z,99125.81
2023-04-10T16:03:49.387Z,99121.13
2023-04-10T16:06:37.622Z,99112.00
2023-04-10T16:09:28.544Z,99115.47
2023-04-10T16:12:15.360Z,99115.47
2023-04-10T16:15:05.456Z,99103.09
2023-04-10T16:17:50.935Z,99109.22
2023-04-10T16:20:36.119Z,99096.59
2023-04-10T16:23:21.399Z,99100.25
2023-04-10T16:26:06.574Z,99097.03
2023-04-10T16:28:53.184Z,99092.16
2023-04-10T16:31:38.710Z,99094.94
2023-04-10T16:34:26.597Z,99092.16
2023-04-10T16:37:17.274Z,99087.47
2023-04-10T16:40:04.496Z,99093.47
2023-04-10T16:42:50.978Z,99069.72
2023-04-10T16:45:39.091Z,99078.16
2023-04-10T16:48:25.351Z,99069.78
2023-04-10T16:51:17.757Z,99067.78
2023-04-10T16:54:03.846Z,99067.47
2023-04-10T16:56:51.378Z,99069.03
2023-04-10T16:59:39.346Z,99061.09
2023-04-10T17:02:27.525Z,99057.44
2023-04-10T17:05:15.866Z,99048.41
2023-04-10T17:08:03.124Z,99047.28
2023-04-10T17:10:52.388Z,99036.50
2023-04-10T17:13:41.621Z,99038.47
2023-04-10T17:16:38.867Z,99043.19
2023-04-10T17:19:24.156Z,99032.81
2023-04-10T17:22:16.345Z,99037.16
2023-04-10T17:25:01.847Z,99034.38
2023-04-10T17:27:47.234Z,99037.16
2023-04-10T17:30:33.568Z,99035.06
2023-04-10T17:33:19.031Z,99033.38
2023-04-10T17:36:05.766Z,99039.78
2023-04-10T17:38:53.833Z,99029.84
2023-04-10T17:41:40.831Z,99031.41
2023-04-10T17:44:26.658Z,99031.41
2023-04-10T17:47:13.182Z,99029.06
2023-04-10T17:49:58.803Z,99022.38
2023-04-10T17:52:44.787Z,99014.88
2023-04-10T17:55:30.518Z,99014.88
2023-04-10T17:58:15.976Z,99018.91
2023-04-10T18:01:01.525Z,99008.19
2023-04-10T18:03:46.851Z,99003.84
2023-04-10T18:06:32.488Z,99007.41
2023-04-10T18:09:17.663Z,99008.28
2023-04-10T18:12:03.227Z,99011.94
2023-04-10T18:14:49.055Z,99006.03
2023-04-10T18:17:34.674Z,99008.03
2023-04-10T18:20:20.928Z,99000.13
2023-04-10T18:23:06.618Z,99006.56
2023-04-10T18:25:55.926Z,98990.22
2023-04-10T18:28:43.152Z,98993.00
2023-04-10T18:31:28.847Z,98990.97
2023-04-10T18:34:14.304Z,98999.00
2023-04-10T18:37:00.159Z,98990.28
2023-04-10T18:39:45.669Z,98983.59
2023-04-10T18:42:31.183Z,98986.38
2023-04-10T18:45:16.891Z,98972.59
2023-04-10T18:48:03.126Z,98975.09
2023-04-10T18:50:52.088Z,98969.66
2023-04-10T18:53:38.410Z,98971.28
2023-04-10T18:57:43.090Z,98967.84
2023-04-10T19:00:28.556Z,98973.13
2023-04-10T19:03:15.360Z,98974.44
2023-04-10T19:06:01.670Z,98967.72
2023-04-10T19:08:47.338Z,98966.25
2023-04-10T19:11:32.772Z,98960.78
2023-04-10T19:14:18.150Z,98956.88
2023-04-10T19:17:06.136Z,98953.75
2023-04-10T19:19:53.190Z,98945.94
2023-04-10T19:22:38.555Z,98941.25
2023-04-10T19:25:24.240Z,98929.78
2023-04-10T19:28:11.210Z,98934.19
2023-04-10T19:30:56.916Z,98925.19
2023-04-10T19:33:42.272Z,98921.25
2023-04-10T19:36:27.955Z,98923.69
2023-04-10T19:39:13.583Z,98921.34
2023-04-10T19:41:59.031Z,98921.78
2023-04-10T19:44:44.477Z,98910.31
2023-04-10T19:47:31.148Z,98912.72
2023-04-10T19:50:16.902Z,98909.19
2023-04-10T19:53:02.266Z,98911.19
2023-04-10T19:55:47.610Z,98916.75
2023-04-10T19:58:40.459Z,98921.97
2023-04-10T20:01:26.146Z,98910.84
2023-04-10T20:04:11.454Z,98910.84
2023-04-10T20:06:57.175Z,98908.47
2023-04-10T20:09:42.813Z,98903.38
2023-04-10T20:12:30.085Z,98898.66
2023-04-10T20:15:15.449Z,98894.34
2023-04-10T20:18:01.276Z,98892.75
2023-04-10T20:20:46.935Z,98876.94
2023-04-10T20:23:32.551Z,98869.38
2023-04-10T20:26:17.895Z,98853.16
2023-04-10T20:29:03.413Z,98850.81
2023-04-10T20:31:48.876Z,98840.88
2023-04-10T20:34:36.325Z,98842.53
2023-04-10T20:37:22.825Z,98837.44
2023-04-10T20:40:09.087Z,98838.66
2023-04-10T20:42:54.459Z,98837.88
2023-04-10T20:45:40.469Z,98839.06
2023-04-10T20:48:26.184Z,98829.97
2023-04-10T20:51:12.715Z,98828.41
2023-04-10T20:53:58.711Z,98823.28
2023-04-10T20:56:44.200Z,98820.50
2023-04-10T20:59:30.054Z,98823.28
2023-04-10T21:02:17.591Z,98822.50
2023-04-10T21:05:03.470Z,98814.94
2023-04-10T21:07:48.977Z,98816.16
2023-04-10T21:10:34.901Z,98825.72
2023-04-10T21:13:20.190Z,98817.78
2023-04-10T21:16:06.726Z,98818.16
2023-04-10T21:18:53.607Z,98807.47
2023-04-10T21:21:39.381Z,98809.03
2023-04-10T21:24:24.976Z,98805.47
2023-04-10T21:27:11.143Z,98802.69
2023-04-10T21:29:56.626Z,98797.13
2023-04-10T21:32:42.552Z,98784.00
2023-04-10T21:35:27.972Z,98782.81
2023-04-10T21:38:13.545Z,98769.69
2023-04-10T21:40:58.864Z,98770.91
2023-04-10T21:43:44.258Z,98761.34
2023-04-10T21:46:30.543Z,98749.47
2023-04-10T21:49:16.165Z,98751.00
2023-04-10T21:52:01.716Z,98754.22
2023-04-10T21:54:47.001Z,98755.44
2023-04-10T21:57:36.655Z,98748.66
2023-04-10T22:00:23.230Z,98741.13
2023-04-10T22:03:09.685Z,98739.53
2023-04-10T22:05:55.078Z,98736.75
2023-04-10T22:08:41.358Z,98737.53
2023-04-10T22:11:26.751Z,98738.34
2023-04-10T22:14:18.001Z,98726.41
2023-04-10T22:17:05.351Z,98725.66
2023-04-10T22:19:51.117Z,98727.66
2023-04-10T22:22:36.598Z,98718.53
2023-04-10T22:25:21.856Z,98723.66
2023-04-10T22:28:07.157Z,98711.75
2023-04-10T22:30:52.491Z,98718.53
2023-04-10T22:33:37.981Z,98708.97
2023-04-10T22:36:23.759Z,98702.63
2023-04-10T22:39:09.576Z,98703.41
2023-04-10T22:41:54.775Z,98701.88
2023-04-10T22:44:39.992Z,98701.88
2023-04-10T22:47:25.314Z,98687.97
2023-04-10T22:50:10.949Z,98685.97
2023-04-10T22:52:56.466Z,98667.72
2023-04-10T22:55:41.949Z,98661.72
2023-04-10T22:58:27.504Z,98651.84
2023-04-10T23:01:13.390Z,98659.72
2023-04-10T23:03:58.656Z,98647.06
2023-04-10T23:06:43.970Z,98638.72
2023-04-10T23:09:29.224Z,98640.72
2023-04-10T23:12:14.763Z,98633.16
2023-04-10T23:14:59.911Z,98618.50
2023-04-10T23:17:45.223Z,98618.50
2023-04-10T23:20:30.493Z,98618.50
2023-04-10T23:23:16.214Z,98612.13
2023-04-10T23:26:01.603Z,98615.25
2023-04-10T23:28:47.596Z,98613.69
2023-04-10T23:31:32.958Z,98604.59
2023-04-10T23:34:18.865Z,98592.25
2023-04-10T23:37:04.075Z,98588.69
2023-04-10T23:39:49.560Z,98587.91
2023-04-10T23:42:35.609Z,98581.13
2023-04-10T23:45:21.225Z,98575.56
2023-04-10T23:48:08.118Z,98567.66
2023-04-10T23:51:03.039Z,98562.91
2023-04-10T23:53:48.373Z,98552.56
2023-04-10T23:56:33.927Z,98545.75
2023-04-10T23:59:19.404Z,98538.66
